createdAt,value
2024-04-21T00:00:16.439Z,65.11
2024-04-21T00:01:37.274Z,64.79
2024-04-21T00:02:57.426Z,64.50
2024-04-21T00:04:18.129Z,65.02
2024-04-21T00:05:38.311Z,65.30
2024-04-21T00:06:59.779Z,64.89
2024-04-21T00:08:20.289Z,64.10
2024-04-21T00:09:40.065Z,64.38
2024-04-21T00:10:59.761Z,64.71
2024-04-21T00:12:19.456Z,65.15
2024-04-21T00:13:39.872Z,65.27
2024-04-21T00:14:59.602Z,65.38
2024-04-21T00:16:19.873Z,65.20
2024-04-21T00:17:39.620Z,65.58
2024-04-21T00:19:00.520Z,65.02
2024-04-21T00:20:21.319Z,65.31
2024-04-21T00:21:41.246Z,65.13
2024-04-21T00:23:01.380Z,65.67
2024-04-21T00:24:22.820Z,64.96
2024-04-21T00:25:42.690Z,64.63
2024-04-21T00:27:02.841Z,65.16
2024-04-21T00:28:23.009Z,65.19
2024-04-21T00:29:43.557Z,64.57
2024-04-21T00:31:04.337Z,65.84
2024-04-21T00:32:24.620Z,66.00
2024-04-21T00:33:44.140Z,66.86
2024-04-21T00:35:03.954Z,67.02
2024-04-21T00:36:24.297Z,66.86
2024-04-21T00:37:44.926Z,66.38
2024-04-21T00:39:05.673Z,66.71
2024-04-21T00:40:26.096Z,65.90
2024-04-21T00:41:45.686Z,66.45
2024-04-21T00:43:05.583Z,65.90
2024-04-21T00:44:26.029Z,66.03
2024-04-21T00:45:47.136Z,66.91
2024-04-21T00:47:07.614Z,66.34
2024-04-21T00:48:27.429Z,65.74
2024-04-21T00:49:48.094Z,65.86
2024-04-21T00:51:08.077Z,66.04
2024-04-21T00:52:28.164Z,66.41
2024-04-21T00:53:51.786Z,65.58
2024-04-21T00:55:13.391Z,65.95
2024-04-21T00:56:33.985Z,65.42
2024-04-21T00:57:55.130Z,66.17
2024-04-21T00:59:17.340Z,66.35
2024-04-21T01:00:37.923Z,67.19
2024-04-21T01:01:58.764Z,66.31
2024-04-21T01:03:19.122Z,67.13
2024-04-21T01:04:39.703Z,66.65
2024-04-21T01:05:59.580Z,66.83
2024-04-21T01:07:20.120Z,66.51
2024-04-21T01:08:40.425Z,66.78
2024-04-21T01:10:00.428Z,65.34
2024-04-21T01:11:21.426Z,66.06
2024-04-21T01:12:41.688Z,66.39
2024-04-21T01:14:02.732Z,66.13
2024-04-21T01:15:22.683Z,66.14
2024-04-21T01:16:44.060Z,65.95
2024-04-21T01:18:07.672Z,65.43
2024-04-21T01:19:27.762Z,65.98
2024-04-21T01:20:49.207Z,66.08
2024-04-21T01:22:09.324Z,66.80
2024-04-21T01:23:29.060Z,66.29
2024-04-21T01:24:49.109Z,66.30
2024-04-21T01:26:09.745Z,66.66
2024-04-21T01:27:29.587Z,66.48
2024-04-21T01:28:50.199Z,66.50
2024-04-21T01:30:10.458Z,66.60
2024-04-21T01:31:30.864Z,66.83
2024-04-21T01:32:50.895Z,66.44
2024-04-21T01:34:10.931Z,66.39
2024-04-21T01:35:32.526Z,66.13
2024-04-21T01:36:52.208Z,67.19
2024-04-21T01:38:11.961Z,66.61
2024-04-21T01:39:32.028Z,66.69
2024-04-21T01:40:51.791Z,67.06
2024-04-21T01:42:11.626Z,67.29
2024-04-21T01:43:32.074Z,66.94
2024-04-21T01:44:53.087Z,67.51
2024-04-21T01:46:13.534Z,66.98
2024-04-21T01:47:33.127Z,67.44
2024-04-21T01:48:53.383Z,67.65
2024-04-21T01:50:13.328Z,67.44
2024-04-21T01:51:34.327Z,67.40
2024-04-21T01:52:53.928Z,68.08
2024-04-21T01:54:14.264Z,67.86
2024-04-21T01:55:34.023Z,67.50
2024-04-21T01:56:54.485Z,67.42
2024-04-21T01:58:14.537Z,68.04
2024-04-21T01:59:34.625Z,67.41
2024-04-21T02:00:54.561Z,67.64
2024-04-21T02:02:14.152Z,67.27
2024-04-21T02:03:35.648Z,67.36
2024-04-21T02:04:55.576Z,67.89
2024-04-21T02:06:16.000Z,66.91
2024-04-21T02:07:37.244Z,67.84
2024-04-21T02:08:57.227Z,67.50
2024-04-21T02:10:17.339Z,67.53
2024-04-21T02:11:37.837Z,68.18
2024-04-21T02:12:57.655Z,67.39
2024-04-21T02:14:17.083Z,68.16
2024-04-21T02:15:37.594Z,67.33
2024-04-21T02:16:57.381Z,67.40
2024-04-21T02:18:17.731Z,67.94
2024-04-21T02:19:38.421Z,68.38
2024-04-21T02:20:58.538Z,68.28
2024-04-21T02:22:18.729Z,67.71
2024-04-21T02:23:38.865Z,67.73
2024-04-21T02:24:58.770Z,67.61
2024-04-21T02:26:19.075Z,67.83
2024-04-21T02:27:39.766Z,68.35
2024-04-21T02:28:59.804Z,68.08
2024-04-21T02:30:21.920Z,67.94
2024-04-21T02:31:46.844Z,67.87
2024-04-21T02:33:07.479Z,69.35
2024-04-21T02:34:27.089Z,68.89
2024-04-21T02:35:47.124Z,69.58
2024-04-21T02:37:07.345Z,68.52
2024-04-21T02:38:27.318Z,68.39
2024-04-21T02:39:47.070Z,68.27
2024-04-21T02:41:07.158Z,68.22
2024-04-21T02:42:27.390Z,68.81
2024-04-21T02:43:47.418Z,68.73
2024-04-21T02:45:07.983Z,68.96
2024-04-21T02:46:28.737Z,68.43
2024-04-21T02:47:48.771Z,68.92
2024-04-21T02:49:09.166Z,68.13
2024-04-21T02:50:29.243Z,67.97
2024-04-21T02:51:49.547Z,68.71
2024-04-21T02:53:09.795Z,68.52
2024-04-21T02:54:30.066Z,68.36
2024-04-21T02:55:51.462Z,67.84
2024-04-21T02:57:11.673Z,67.89
2024-04-21T02:58:31.959Z,68.31
2024-04-21T02:59:51.744Z,68.71
2024-04-21T03:01:12.294Z,68.72
2024-04-21T03:02:32.212Z,69.17
2024-04-21T03:03:51.996Z,69.04
2024-04-21T03:05:13.163Z,69.36
2024-04-21T03:06:33.731Z,69.48
2024-04-21T03:07:53.920Z,68.87
2024-04-21T03:09:13.861Z,69.11
2024-04-21T03:10:33.679Z,68.64
2024-04-21T03:11:53.434Z,68.90
2024-04-21T03:13:13.211Z,69.14
2024-04-21T03:14:33.152Z,69.17
2024-04-21T03:15:53.070Z,69.05
2024-04-21T03:17:13.695Z,68.92
2024-04-21T03:18:33.438Z,69.52
2024-04-21T03:19:53.349Z,69.25
2024-04-21T03:21:13.226Z,69.90
2024-04-21T03:22:33.304Z,69.36
2024-04-21T03:23:53.199Z,70.20
2024-04-21T03:25:13.509Z,69.68
2024-04-21T03:26:33.575Z,69.44
2024-04-21T03:27:53.408Z,69.42
2024-04-21T03:29:14.087Z,69.35
2024-04-21T03:30:34.276Z,69.08
2024-04-21T03:31:54.182Z,69.86
2024-04-21T03:33:13.910Z,70.28
2024-04-21T03:34:34.214Z,69.71
2024-04-21T03:36:04.209Z,70.38
2024-04-21T03:37:23.955Z,69.95
2024-04-21T03:38:44.896Z,70.45
2024-04-21T03:40:05.785Z,70.32
2024-04-21T03:41:26.123Z,70.28
2024-04-21T03:42:47.049Z,69.60
2024-04-21T03:44:07.908Z,69.79
2024-04-21T03:45:28.122Z,69.30
2024-04-21T03:46:48.392Z,70.18
2024-04-21T03:48:08.749Z,69.71
2024-04-21T03:49:28.774Z,70.54
2024-04-21T03:50:50.392Z,70.41
2024-04-21T03:52:10.197Z,70.40
2024-04-21T03:53:30.918Z,70.10
2024-04-21T03:54:50.967Z,70.28
2024-04-21T03:56:11.468Z,70.32
2024-04-21T03:57:31.802Z,70.60
2024-04-21T03:58:51.193Z,70.54
2024-04-21T04:00:12.193Z,70.19
2024-04-21T04:01:33.362Z,70.46
2024-04-21T04:02:53.351Z,70.62
2024-04-21T04:04:13.847Z,70.61
2024-04-21T04:05:34.221Z,71.27
2024-04-21T04:06:55.207Z,71.19
2024-04-21T04:08:15.760Z,70.69
2024-04-21T04:09:36.338Z,70.35
2024-04-21T04:10:56.991Z,70.54
2024-04-21T04:12:17.059Z,70.65
2024-04-21T04:13:37.337Z,71.13
2024-04-21T04:14:57.083Z,71.18
2024-04-21T04:16:18.085Z,71.62
2024-04-21T04:17:39.669Z,71.64
2024-04-21T04:19:00.468Z,71.66
2024-04-21T04:20:20.479Z,71.12
2024-04-21T04:21:40.139Z,71.25
2024-04-21T04:22:59.815Z,71.09
2024-04-21T04:24:19.246Z,71.58
2024-04-21T04:25:39.485Z,71.01
2024-04-21T04:26:59.950Z,72.05
2024-04-21T04:28:20.926Z,71.29
2024-04-21T04:29:41.214Z,71.24
2024-04-21T04:31:00.958Z,70.95
2024-04-21T04:32:21.662Z,71.63
2024-04-21T04:33:41.764Z,71.53
2024-04-21T04:35:01.540Z,71.13
2024-04-21T04:36:20.888Z,71.02
2024-04-21T04:37:40.857Z,70.83
2024-04-21T04:39:04.644Z,71.33
2024-04-21T04:40:24.820Z,71.93
2024-04-21T04:41:44.146Z,72.12
2024-04-21T04:43:04.928Z,71.84
2024-04-21T04:44:25.304Z,71.11
2024-04-21T04:45:45.592Z,71.84
2024-04-21T04:47:06.090Z,71.03
2024-04-21T04:48:26.287Z,71.71
2024-04-21T04:49:46.184Z,71.70
2024-04-21T04:51:06.130Z,71.21
2024-04-21T04:52:26.756Z,70.91
2024-04-21T04:53:46.347Z,71.49
2024-04-21T04:55:06.593Z,71.28
2024-04-21T04:56:26.620Z,70.69
2024-04-21T04:57:46.517Z,70.64
2024-04-21T04:59:08.106Z,70.60
2024-04-21T05:00:27.922Z,70.59
2024-04-21T05:01:48.527Z,70.25
2024-04-21T05:03:08.339Z,70.70
2024-04-21T05:04:29.014Z,69.98
2024-04-21T05:05:49.854Z,70.34
2024-04-21T05:07:13.976Z,69.33
2024-04-21T05:08:34.394Z,69.40
2024-04-21T05:09:55.027Z,69.29
2024-04-21T05:11:15.180Z,68.93
2024-04-21T05:12:34.903Z,68.86
2024-04-21T05:13:56.894Z,68.43
2024-04-21T05:15:19.447Z,67.44
2024-04-21T05:16:45.510Z,67.62
2024-04-21T05:18:06.050Z,67.88
2024-04-21T05:19:27.163Z,66.37
2024-04-21T05:20:48.401Z,66.85
2024-04-21T05:22:08.750Z,65.99
2024-04-21T05:23:31.117Z,66.64
2024-04-21T05:24:50.976Z,66.63
2024-04-21T05:26:11.311Z,66.12
2024-04-21T05:27:34.116Z,65.69
2024-04-21T05:28:55.949Z,66.07
2024-04-21T05:30:15.559Z,65.74
2024-04-21T05:31:35.267Z,65.69
2024-04-21T05:32:55.606Z,65.53
2024-04-21T05:34:16.812Z,65.37
2024-04-21T05:35:36.509Z,65.20
2024-04-21T05:36:57.242Z,64.74
2024-04-21T05:38:16.687Z,65.05
2024-04-21T05:39:36.648Z,65.39
2024-04-21T05:40:56.035Z,65.05
2024-04-21T05:42:16.220Z,64.60
2024-04-21T05:43:37.411Z,65.25
2024-04-21T05:44:57.798Z,64.13
2024-04-21T05:46:17.479Z,65.02
2024-04-21T05:47:38.934Z,64.34
2024-04-21T05:49:01.699Z,64.91
2024-04-21T05:50:22.108Z,64.60
2024-04-21T05:51:41.999Z,64.30
2024-04-21T05:53:02.299Z,64.25
2024-04-21T05:54:22.220Z,64.80
2024-04-21T05:55:42.104Z,64.00
2024-04-21T05:57:02.113Z,64.55
2024-04-21T05:58:21.781Z,64.00
2024-04-21T05:59:41.525Z,64.63
2024-04-21T06:01:01.203Z,64.09
2024-04-21T06:02:21.581Z,64.69
2024-04-21T06:03:41.626Z,63.97
2024-04-21T06:05:03.968Z,63.80
2024-04-21T06:06:23.717Z,63.94
2024-04-21T06:07:44.234Z,64.40
2024-04-21T06:09:05.496Z,64.37
2024-04-21T06:10:25.630Z,64.46
2024-04-21T06:11:46.705Z,63.27
2024-04-21T06:13:08.854Z,64.34
2024-04-21T06:14:28.813Z,63.12
2024-04-21T06:15:48.950Z,63.75
2024-04-21T06:17:09.578Z,63.43
2024-04-21T06:18:31.257Z,63.95
2024-04-21T06:19:52.443Z,62.81
2024-04-21T06:21:12.447Z,63.44
2024-04-21T06:22:31.800Z,63.41
2024-04-21T06:23:51.871Z,62.15
2024-04-21T06:25:12.332Z,62.26
2024-04-21T06:26:31.836Z,62.66
2024-04-21T06:27:52.200Z,61.43
2024-04-21T06:29:12.410Z,61.46
2024-04-21T06:30:32.711Z,61.62
2024-04-21T06:31:53.588Z,61.43
2024-04-21T06:33:13.525Z,60.30
2024-04-21T06:34:33.108Z,61.03
2024-04-21T06:35:54.005Z,60.20
2024-04-21T06:37:13.912Z,60.84
2024-04-21T06:38:34.300Z,60.46
2024-04-21T06:39:54.801Z,59.79
2024-04-21T06:41:14.627Z,60.39
2024-04-21T06:42:34.083Z,59.22
2024-04-21T06:43:54.302Z,59.88
2024-04-21T06:45:15.250Z,58.87
2024-04-21T06:46:35.566Z,58.82
2024-04-21T06:47:55.308Z,58.84
2024-04-21T06:49:15.143Z,58.27
2024-04-21T06:50:37.247Z,58.58
2024-04-21T06:51:57.592Z,58.40
2024-04-21T06:53:18.817Z,57.71
2024-04-21T06:54:40.073Z,58.29
2024-04-21T06:56:00.908Z,57.97
2024-04-21T06:57:21.529Z,58.02
2024-04-21T06:58:42.220Z,57.41
2024-04-21T07:00:02.375Z,57.52
2024-04-21T07:01:21.899Z,58.22
2024-04-21T07:02:41.799Z,57.61
2024-04-21T07:04:01.243Z,57.88
2024-04-21T07:05:20.816Z,57.38
2024-04-21T07:06:41.013Z,56.63
2024-04-21T07:08:00.498Z,57.07
2024-04-21T07:09:20.456Z,57.24
2024-04-21T07:10:42.555Z,56.67
2024-04-21T07:12:02.689Z,55.67
2024-04-21T07:13:23.671Z,55.48
2024-04-21T07:14:43.932Z,56.33
2024-04-21T07:16:04.650Z,56.55
2024-04-21T07:17:25.131Z,55.04
2024-04-21T07:18:46.507Z,56.46
2024-04-21T07:20:07.619Z,55.66
2024-04-21T07:21:28.247Z,55.50
2024-04-21T07:22:49.018Z,56.55
2024-04-21T07:24:10.140Z,56.32
2024-04-21T07:25:30.752Z,55.53
2024-04-21T07:26:51.173Z,55.18
2024-04-21T07:28:12.169Z,55.77
2024-04-21T07:29:32.776Z,54.91
2024-04-21T07:30:54.845Z,54.39
2024-04-21T07:32:16.485Z,55.03
2024-04-21T07:33:36.961Z,54.15
2024-04-21T07:34:57.061Z,53.68
2024-04-21T07:36:17.578Z,54.67
2024-04-21T07:37:38.058Z,54.66
2024-04-21T07:39:01.790Z,54.83
2024-04-21T07:40:22.859Z,54.37
2024-04-21T07:41:43.794Z,54.01
2024-04-21T07:43:04.147Z,54.42
2024-04-21T07:44:24.282Z,53.76
2024-04-21T07:45:46.184Z,54.08
2024-04-21T07:47:07.038Z,53.10
2024-04-21T07:48:27.259Z,53.58
2024-04-21T07:49:47.201Z,52.14
2024-04-21T07:51:06.568Z,51.28
2024-04-21T07:52:26.618Z,51.41
2024-04-21T07:53:47.237Z,52.64
2024-04-21T07:55:07.920Z,51.99
2024-04-21T07:56:28.241Z,51.83
2024-04-21T07:57:48.111Z,51.49
2024-04-21T07:59:07.798Z,51.13
2024-04-21T08:00:28.367Z,51.52
2024-04-21T08:01:49.074Z,51.25
2024-04-21T08:03:10.106Z,50.73
2024-04-21T08:04:30.829Z,51.10
2024-04-21T08:05:50.643Z,49.98
2024-04-21T08:07:10.359Z,50.71
2024-04-21T08:08:30.259Z,49.83
2024-04-21T08:09:50.323Z,50.34
2024-04-21T08:11:11.155Z,49.38
2024-04-21T08:12:32.170Z,48.04
2024-04-21T08:13:55.247Z,48.16
2024-04-21T08:15:15.044Z,48.27
2024-04-21T08:16:36.034Z,48.45
2024-04-21T08:17:56.143Z,47.12
2024-04-21T08:19:16.447Z,47.41
2024-04-21T08:20:38.821Z,46.61
2024-04-21T08:21:59.644Z,46.13
2024-04-21T08:23:20.597Z,44.78
2024-04-21T08:24:40.415Z,45.16
2024-04-21T08:26:03.281Z,46.10
2024-04-21T08:27:23.624Z,50.94
2024-04-21T08:28:44.013Z,45.56
2024-04-21T08:30:03.956Z,50.66
2024-04-21T08:31:23.893Z,47.57
2024-04-21T08:32:43.992Z,46.86
2024-04-21T08:34:04.605Z,45.60
2024-04-21T08:35:24.842Z,44.66
2024-04-21T08:36:44.259Z,44.77
2024-04-21T08:38:04.926Z,45.07
2024-04-21T08:39:25.159Z,44.48
2024-04-21T08:40:49.816Z,43.75
2024-04-21T08:42:09.978Z,42.76
2024-04-21T08:43:30.697Z,43.15
2024-04-21T08:44:52.274Z,43.11
2024-04-21T08:46:13.405Z,43.02
2024-04-21T08:47:34.684Z,43.27
2024-04-21T08:48:54.945Z,43.04
2024-04-21T08:50:16.482Z,43.18
2024-04-21T08:51:37.744Z,42.65
2024-04-21T08:52:58.472Z,43.51
2024-04-21T08:54:18.588Z,41.88
2024-04-21T08:55:39.736Z,42.68
2024-04-21T08:57:01.024Z,42.21
2024-04-21T08:58:21.485Z,42.44
2024-04-21T08:59:42.656Z,40.47
2024-04-21T09:01:03.624Z,39.56
2024-04-21T09:02:23.770Z,39.89
2024-04-21T09:03:43.910Z,39.14
2024-04-21T09:05:04.949Z,40.02
2024-04-21T09:06:26.327Z,39.36
2024-04-21T09:07:46.646Z,40.81
2024-04-21T09:09:07.021Z,40.05
2024-04-21T09:10:27.106Z,40.45
2024-04-21T09:11:47.893Z,39.69
2024-04-21T09:13:09.238Z,38.34
2024-04-21T09:14:29.126Z,38.58
2024-04-21T09:15:49.727Z,39.14
2024-04-21T09:17:10.302Z,38.75
2024-04-21T09:18:30.528Z,39.69
2024-04-21T09:19:50.482Z,39.46
2024-04-21T09:21:10.899Z,38.30
2024-04-21T09:22:31.092Z,38.22
2024-04-21T09:23:51.411Z,38.67
2024-04-21T09:25:11.654Z,37.63
2024-04-21T09:26:33.550Z,37.22
2024-04-21T09:27:53.834Z,37.32
2024-04-21T09:29:13.495Z,37.08
2024-04-21T09:30:33.387Z,35.80
2024-04-21T09:31:53.806Z,36.38
2024-04-21T09:33:14.365Z,36.81
2024-04-21T09:34:34.353Z,36.54
2024-04-21T09:35:57.938Z,35.95
2024-04-21T09:37:19.023Z,36.22
2024-04-21T09:38:41.387Z,37.34
2024-04-21T09:40:02.363Z,36.40
2024-04-21T09:41:24.795Z,37.26
2024-04-21T09:42:44.986Z,36.36
2024-04-21T09:44:09.608Z,36.78
2024-04-21T09:45:31.102Z,34.81
2024-04-21T09:46:52.529Z,36.32
2024-04-21T09:48:12.748Z,36.10
2024-04-21T09:49:33.093Z,36.19
2024-04-21T09:50:56.883Z,37.44
2024-04-21T09:52:18.579Z,36.80
2024-04-21T09:53:40.180Z,36.91
2024-04-21T09:55:01.427Z,37.85
2024-04-21T09:56:21.962Z,37.51
2024-04-21T09:57:43.881Z,38.10
2024-04-21T09:59:04.257Z,37.98
2024-04-21T10:00:24.745Z,37.45
2024-04-21T10:01:46.475Z,36.91
2024-04-21T10:03:09.853Z,37.28
2024-04-21T10:04:30.666Z,37.89
2024-04-21T10:05:54.464Z,37.41
2024-04-21T10:07:14.426Z,37.64
2024-04-21T10:08:36.553Z,37.10
2024-04-21T10:09:58.678Z,36.03
2024-04-21T10:11:19.205Z,36.52
2024-04-21T10:12:39.895Z,36.03
2024-04-21T10:14:01.275Z,35.43
2024-04-21T10:15:23.501Z,36.67
2024-04-21T10:16:44.178Z,35.42
2024-04-21T10:18:04.539Z,34.61
2024-04-21T10:19:26.034Z,35.18
2024-04-21T10:20:46.177Z,34.67
2024-04-21T10:22:06.526Z,34.02
2024-04-21T10:23:30.543Z,34.11
2024-04-21T10:24:51.069Z,33.38
2024-04-21T10:26:11.714Z,32.76
2024-04-21T10:27:32.022Z,33.36
2024-04-21T10:28:52.231Z,32.35
2024-04-21T10:30:13.264Z,31.88
2024-04-21T10:31:33.100Z,30.81
2024-04-21T10:33:02.829Z,30.39
2024-04-21T10:34:23.463Z,30.94
2024-04-21T10:35:43.831Z,31.31
2024-04-21T10:37:03.939Z,30.36
2024-04-21T10:38:24.949Z,30.27
2024-04-21T10:39:44.859Z,30.55
2024-04-21T10:41:08.506Z,30.36
2024-04-21T10:42:32.818Z,30.04
2024-04-21T10:43:55.698Z,28.78
2024-04-21T10:45:15.869Z,27.88
2024-04-21T10:46:37.008Z,28.87
2024-04-21T10:47:57.084Z,27.40
2024-04-21T10:49:17.699Z,27.64
2024-04-21T10:50:39.184Z,27.17
2024-04-21T10:51:59.993Z,28.02
2024-04-21T10:53:20.382Z,27.96
2024-04-21T10:54:40.552Z,27.18
2024-04-21T10:56:01.033Z,27.72
2024-04-21T10:57:21.418Z,28.04
2024-04-21T10:58:41.450Z,28.16
2024-04-21T11:00:01.468Z,27.68
2024-04-21T11:01:26.677Z,27.80
2024-04-21T11:02:46.563Z,27.99
2024-04-21T11:04:06.967Z,27.20
2024-04-21T11:05:29.675Z,28.30
2024-04-21T11:06:50.296Z,28.45
2024-04-21T11:08:13.522Z,28.68
2024-04-21T11:09:33.499Z,29.59
2024-04-21T11:10:54.459Z,29.45
2024-04-21T11:12:17.046Z,29.76
2024-04-21T11:13:37.222Z,28.59
2024-04-21T11:15:00.805Z,27.95
2024-04-21T11:16:20.802Z,28.12
2024-04-21T11:17:41.185Z,27.02
2024-04-21T11:19:01.650Z,26.89
2024-04-21T11:20:21.792Z,26.12
2024-04-21T11:21:42.245Z,26.04
2024-04-21T11:23:02.744Z,25.72
2024-04-21T11:24:23.209Z,26.51
2024-04-21T11:25:51.208Z,25.61
2024-04-21T11:27:13.135Z,25.76
2024-04-21T11:28:33.433Z,25.44
2024-04-21T11:29:53.489Z,24.29
2024-04-21T11:31:13.827Z,24.21
2024-04-21T11:32:33.857Z,23.68
2024-04-21T11:34:01.819Z,24.99
2024-04-21T11:35:22.719Z,24.37
2024-04-21T11:36:43.297Z,23.77
2024-04-21T11:38:03.751Z,23.33
2024-04-21T11:39:24.050Z,24.07
2024-04-21T11:40:43.897Z,24.51
2024-04-21T11:42:04.138Z,26.27
2024-04-21T11:43:27.937Z,26.39
2024-04-21T11:44:47.815Z,25.32
2024-04-21T11:46:12.158Z,24.67
2024-04-21T11:47:32.774Z,25.27
2024-04-21T11:48:57.502Z,24.99
2024-04-21T11:50:25.367Z,23.80
2024-04-21T11:51:48.936Z,24.50
2024-04-21T11:53:08.998Z,25.37
2024-04-21T11:54:28.536Z,25.96
2024-04-21T11:55:49.038Z,25.41
2024-04-21T11:57:09.342Z,26.21
2024-04-21T11:58:34.233Z,26.20
2024-04-21T11:59:54.175Z,25.39
2024-04-21T12:01:19.036Z,24.78
2024-04-21T12:02:41.079Z,24.69
2024-04-21T12:04:02.092Z,24.67
2024-04-21T12:05:22.491Z,25.67
2024-04-21T12:06:43.801Z,26.44
2024-04-21T12:08:04.082Z,26.08
2024-04-21T12:09:23.623Z,25.49
2024-04-21T12:10:44.073Z,25.58
2024-04-21T12:12:04.887Z,25.40
2024-04-21T12:13:24.381Z,24.34
2024-04-21T12:14:44.766Z,23.35
2024-04-21T12:16:06.113Z,24.06
2024-04-21T12:17:26.586Z,23.45
2024-04-21T12:18:46.631Z,23.26
2024-04-21T12:20:06.368Z,22.69
2024-04-21T12:21:27.564Z,22.38
2024-04-21T12:22:49.398Z,23.01
2024-04-21T12:24:09.523Z,22.16
2024-04-21T12:25:29.719Z,22.12
2024-04-21T12:26:50.609Z,21.73
2024-04-21T12:28:10.683Z,22.24
2024-04-21T12:29:31.124Z,21.86
2024-04-21T12:30:51.212Z,21.70
2024-04-21T12:32:11.635Z,21.32
2024-04-21T12:33:31.907Z,21.47
2024-04-21T12:34:51.910Z,20.60
2024-04-21T12:36:11.940Z,20.11
2024-04-21T12:37:32.914Z,20.06
2024-04-21T12:38:53.303Z,20.13
2024-04-21T12:40:13.896Z,20.63
2024-04-21T12:41:34.863Z,20.43
2024-04-21T12:42:55.295Z,20.76
2024-04-21T12:44:15.661Z,20.59
2024-04-21T12:45:36.061Z,21.82
2024-04-21T12:46:56.344Z,22.25
2024-04-21T12:48:17.810Z,22.14
2024-04-21T12:49:42.871Z,23.02
2024-04-21T12:51:03.758Z,23.24
2024-04-21T12:52:24.246Z,23.53
2024-04-21T12:53:46.683Z,23.85
2024-04-21T12:55:10.149Z,23.37
2024-04-21T12:56:39.532Z,23.73
2024-04-21T12:58:02.085Z,24.13
2024-04-21T12:59:49.043Z,24.21
2024-04-21T13:01:09.433Z,24.22
2024-04-21T13:02:47.073Z,24.21
2024-04-21T13:04:51.739Z,24.51
2024-04-21T13:06:11.484Z,25.58
2024-04-21T13:07:31.660Z,26.31
2024-04-21T13:08:52.976Z,25.86
2024-04-21T13:10:14.004Z,26.42
2024-04-21T13:11:39.510Z,27.92
2024-04-21T13:13:00.468Z,28.44
2024-04-21T13:14:21.280Z,29.26
2024-04-21T13:15:42.387Z,28.67
2024-04-21T13:17:03.335Z,29.02
2024-04-21T13:18:23.515Z,29.42
2024-04-21T13:19:45.422Z,29.62
2024-04-21T13:21:05.866Z,29.58
2024-04-21T13:22:25.972Z,29.34
2024-04-21T13:23:46.121Z,28.01
2024-04-21T13:25:07.282Z,27.19
2024-04-21T13:26:27.326Z,26.48
2024-04-21T13:27:48.339Z,25.59
2024-04-21T13:29:08.729Z,25.84
2024-04-21T13:30:32.064Z,25.24
2024-04-21T13:31:53.011Z,25.28
2024-04-21T13:33:14.749Z,25.12
2024-04-21T13:34:34.883Z,24.92
2024-04-21T13:35:55.904Z,24.10
2024-04-21T13:37:16.742Z,24.77
2024-04-21T13:38:37.344Z,24.09
2024-04-21T13:39:57.549Z,24.34
2024-04-21T13:41:18.271Z,23.82
2024-04-21T13:42:38.602Z,23.48
2024-04-21T13:43:58.769Z,23.17
2024-04-21T13:45:18.951Z,23.26
2024-04-21T13:46:39.172Z,22.74
2024-04-21T13:47:58.875Z,22.38
2024-04-21T13:49:19.547Z,22.04
2024-04-21T13:50:39.887Z,22.43
2024-04-21T13:52:00.405Z,22.55
2024-04-21T13:53:20.216Z,22.67
2024-04-21T13:54:40.190Z,22.12
2024-04-21T13:56:01.026Z,22.62
2024-04-21T13:57:21.948Z,22.37
2024-04-21T13:58:41.846Z,21.89
2024-04-21T14:00:01.970Z,22.60
2024-04-21T14:01:21.645Z,21.72
2024-04-21T14:02:41.095Z,21.82
2024-04-21T14:04:03.515Z,21.93
2024-04-21T14:05:23.868Z,21.65
2024-04-21T14:06:44.284Z,21.37
2024-04-21T14:08:05.356Z,21.52
2024-04-21T14:09:25.341Z,20.75
2024-04-21T14:10:45.256Z,21.92
2024-04-21T14:12:05.537Z,21.44
2024-04-21T14:13:25.845Z,21.56
2024-04-21T14:14:46.985Z,21.61
2024-04-21T14:16:07.774Z,22.25
2024-04-21T14:17:29.377Z,22.05
2024-04-21T14:18:51.406Z,22.21
2024-04-21T14:20:12.732Z,22.19
2024-04-21T14:21:33.317Z,22.28
2024-04-21T14:22:53.454Z,21.75
2024-04-21T14:24:13.784Z,21.71
2024-04-21T14:25:34.475Z,21.16
2024-04-21T14:26:54.565Z,21.26
2024-04-21T14:28:14.906Z,21.73
2024-04-21T14:29:38.580Z,22.53
2024-04-21T14:31:01.508Z,23.32
2024-04-21T14:32:22.836Z,23.97
2024-04-21T14:33:43.439Z,24.22
2024-04-21T14:35:07.370Z,24.71
2024-04-21T14:36:28.585Z,24.35
2024-04-21T14:37:49.169Z,25.18
2024-04-21T14:39:09.779Z,24.84
2024-04-21T14:40:30.250Z,25.08
2024-04-21T14:41:50.319Z,25.03
2024-04-21T14:43:15.310Z,24.08
2024-04-21T14:44:37.576Z,24.12
2024-04-21T14:45:58.088Z,23.79
2024-04-21T14:47:20.649Z,23.86
2024-04-21T14:48:40.362Z,23.02
2024-04-21T14:50:00.429Z,23.59
2024-04-21T14:51:20.580Z,24.00
2024-04-21T14:52:48.945Z,24.42
2024-04-21T14:54:09.560Z,25.32
2024-04-21T14:55:36.731Z,25.69
2024-04-21T14:56:57.197Z,25.54
2024-04-21T14:58:17.701Z,26.21
2024-04-21T14:59:38.138Z,26.55
2024-04-21T15:00:58.553Z,26.82
2024-04-21T15:02:21.322Z,26.44
2024-04-21T15:03:41.293Z,25.70
2024-04-21T15:05:01.494Z,26.35
2024-04-21T15:06:22.153Z,26.52
2024-04-21T15:07:41.788Z,26.90
2024-04-21T15:09:01.587Z,26.72
2024-04-21T15:10:21.485Z,26.78
2024-04-21T15:11:41.292Z,26.46
2024-04-21T15:13:01.312Z,26.03
2024-04-21T15:14:21.293Z,26.36
2024-04-21T15:15:42.340Z,26.81
2024-04-21T15:17:02.394Z,26.52
2024-04-21T15:18:22.488Z,26.96
2024-04-21T15:19:43.089Z,26.88
2024-04-21T15:21:03.575Z,27.41
2024-04-21T15:22:25.814Z,27.46
2024-04-21T15:23:47.802Z,28.52
2024-04-21T15:25:08.172Z,28.54
2024-04-21T15:26:29.305Z,28.37
2024-04-21T15:27:51.990Z,28.17
2024-04-21T15:29:14.062Z,28.69
2024-04-21T15:30:34.912Z,28.38
2024-04-21T15:31:55.383Z,28.56
2024-04-21T15:33:16.152Z,28.56
2024-04-21T15:34:36.885Z,28.62
2024-04-21T15:35:57.020Z,28.63
2024-04-21T15:37:18.031Z,28.64
2024-04-21T15:38:38.410Z,29.05
2024-04-21T15:39:58.673Z,29.17
2024-04-21T15:41:18.889Z,29.69
2024-04-21T15:42:42.887Z,30.06
2024-04-21T15:44:04.452Z,30.21
2024-04-21T15:45:24.767Z,30.74
2024-04-21T15:46:44.627Z,30.46
2024-04-21T15:48:04.987Z,30.67
2024-04-21T15:49:28.825Z,31.72
2024-04-21T15:50:50.772Z,32.09
2024-04-21T15:52:10.901Z,31.21
2024-04-21T15:53:31.416Z,31.37
2024-04-21T15:54:52.977Z,32.05
2024-04-21T15:56:15.337Z,31.95
2024-04-21T15:57:35.474Z,32.36
2024-04-21T15:58:56.158Z,32.52
2024-04-21T16:00:17.174Z,32.05
2024-04-21T16:01:37.689Z,32.76
2024-04-21T16:02:57.484Z,32.40
2024-04-21T16:04:18.407Z,33.08
2024-04-21T16:05:38.988Z,32.94
2024-04-21T16:06:59.214Z,33.26
2024-04-21T16:08:19.659Z,33.06
2024-04-21T16:09:40.541Z,33.74
2024-04-21T16:11:00.633Z,33.26
2024-04-21T16:12:20.650Z,33.50
2024-04-21T16:13:40.480Z,34.27
2024-04-21T16:15:01.748Z,35.08
2024-04-21T16:16:22.803Z,34.55
2024-04-21T16:17:43.121Z,35.31
2024-04-21T16:19:03.639Z,35.29
2024-04-21T16:20:23.852Z,35.41
2024-04-21T16:21:44.015Z,36.09
2024-04-21T16:23:04.078Z,36.11
2024-04-21T16:24:24.407Z,36.12
2024-04-21T16:25:44.465Z,35.85
2024-04-21T16:27:04.771Z,36.41
2024-04-21T16:28:25.258Z,36.59
2024-04-21T16:29:44.919Z,36.90
2024-04-21T16:31:04.849Z,37.50
2024-04-21T16:32:25.818Z,37.70
2024-04-21T16:33:46.192Z,37.71
2024-04-21T16:35:07.225Z,38.14
2024-04-21T16:36:28.527Z,38.32
2024-04-21T16:37:52.871Z,38.55
2024-04-21T16:39:13.347Z,39.33
2024-04-21T16:40:36.138Z,39.07
2024-04-21T16:41:59.548Z,39.41
2024-04-21T16:43:24.835Z,39.72
2024-04-21T16:44:45.814Z,40.38
2024-04-21T16:46:06.523Z,40.35
2024-04-21T16:47:30.084Z,39.93
2024-04-21T16:48:52.932Z,40.83
2024-04-21T16:50:17.369Z,41.39
2024-04-21T16:51:37.870Z,40.17
2024-04-21T16:53:00.134Z,40.44
2024-04-21T16:54:21.205Z,40.84
2024-04-21T16:55:46.097Z,41.28
2024-04-21T16:58:43.325Z,40.89
2024-04-21T17:00:08.014Z,41.50
2024-04-21T17:01:35.502Z,41.99
2024-04-21T17:02:56.217Z,41.44
2024-04-21T17:04:22.417Z,41.99
2024-04-21T17:05:42.392Z,42.02
2024-04-21T17:07:03.271Z,42.82
2024-04-21T17:08:34.841Z,42.48
2024-04-21T17:09:59.323Z,42.65
2024-04-21T17:11:20.326Z,42.37
2024-04-21T17:12:40.982Z,42.59
2024-04-21T17:14:00.793Z,42.68
2024-04-21T17:15:21.256Z,43.03
2024-04-21T17:16:43.673Z,43.07
2024-04-21T17:18:04.239Z,43.94
2024-04-21T17:19:25.620Z,44.34
2024-04-21T17:20:45.644Z,43.63
2024-04-21T17:22:05.320Z,44.53
2024-04-21T17:23:25.932Z,44.59